createdAt,value
2018-07-30T00:04:44.680Z,19.60
2018-07-30T00:07:13.218Z,19.60
2018-07-30T00:09:41.729Z,19.50
2018-07-30T00:12:10.447Z,19.50
2018-07-30T00:14:38.928Z,19.50
2018-07-30T00:17:07.444Z,19.40
2018-07-30T00:19:36.246Z,19.40
2018-07-30T00:22:04.737Z,19.30
2018-07-30T00:24:33.258Z,19.30
2018-07-30T00:27:01.725Z,19.20
2018-07-30T00:29:30.183Z,19.20
2018-07-30T00:31:58.686Z,19.20
2018-07-30T00:34:27.136Z,19.10
2018-07-30T00:36:55.639Z,19.10
2018-07-30T00:39:24.102Z,19.10
2018-07-30T00:41:52.578Z,19.10
2018-07-30T00:44:21.100Z,19.10
2018-07-30T00:49:17.785Z,19.10
2018-07-30T00:51:46.235Z,19.00
2018-07-30T00:54:14.719Z,19.00
2018-07-30T00:56:43.181Z,18.90
2018-07-30T00:59:11.659Z,18.90
2018-07-30T01:01:40.132Z,18.90
2018-07-30T01:04:08.612Z,18.90
2018-07-30T01:06:37.081Z,18.90
2018-07-30T01:09:08.684Z,18.90
2018-07-30T01:11:37.151Z,18.90
2018-07-30T01:14:05.591Z,18.90
2018-07-30T01:16:34.444Z,18.90
2018-07-30T01:19:03.130Z,18.90
2018-07-30T01:21:31.673Z,18.90
2018-07-30T01:24:00.143Z,18.90
2018-07-30T01:26:29.484Z,18.90
2018-07-30T01:28:59.497Z,18.80
2018-07-30T01:31:27.942Z,18.70
2018-07-30T01:33:56.465Z,18.70
2018-07-30T01:36:24.934Z,18.70
2018-07-30T01:38:53.411Z,18.70
2018-07-30T01:41:21.874Z,18.70
2018-07-30T01:43:50.343Z,18.60
2018-07-30T01:46:18.836Z,18.60
2018-07-30T01:48:47.328Z,18.60
2018-07-30T01:51:15.950Z,18.50
2018-07-30T01:53:44.426Z,18.50
2018-07-30T01:56:12.990Z,18.40
2018-07-30T01:58:41.482Z,18.40
2018-07-30T02:01:09.982Z,18.40
2018-07-30T02:03:38.442Z,18.40
2018-07-30T02:06:06.963Z,18.40
2018-07-30T02:08:35.457Z,18.30
2018-07-30T02:11:03.951Z,18.20
2018-07-30T02:13:32.409Z,18.20
2018-07-30T02:16:00.912Z,18.20
2018-07-30T02:18:29.391Z,18.30
2018-07-30T02:20:57.850Z,18.30
2018-07-30T02:23:26.343Z,18.20
2018-07-30T02:25:54.854Z,18.20
2018-07-30T02:28:23.351Z,18.10
2018-07-30T02:30:51.904Z,18.10
2018-07-30T02:33:21.014Z,18.10
2018-07-30T02:35:49.478Z,18.00
2018-07-30T02:40:46.154Z,18.00
2018-07-30T02:43:14.647Z,18.00
2018-07-30T02:45:43.137Z,18.00
2018-07-30T02:48:11.615Z,18.00
2018-07-30T02:50:40.124Z,18.00
2018-07-30T02:53:08.605Z,18.00
2018-07-30T02:55:37.130Z,17.90
2018-07-30T02:58:05.649Z,17.80
2018-07-30T03:00:34.123Z,17.90
2018-07-30T03:03:02.646Z,17.80
2018-07-30T03:05:31.265Z,17.80
2018-07-30T03:07:59.707Z,17.90
2018-07-30T03:10:28.223Z,17.80
2018-07-30T03:12:56.665Z,17.70
2018-07-30T03:15:25.155Z,17.70
2018-07-30T03:17:53.653Z,17.80
2018-07-30T03:20:22.122Z,17.70
2018-07-30T03:22:50.651Z,17.70
2018-07-30T03:25:19.126Z,17.70
2018-07-30T03:27:47.632Z,17.70
2018-07-30T03:30:16.099Z,17.60
2018-07-30T03:32:44.583Z,17.60
2018-07-30T03:35:13.098Z,17.60
2018-07-30T03:37:41.631Z,17.60
2018-07-30T03:40:10.136Z,17.50
2018-07-30T03:42:38.666Z,17.50
2018-07-30T03:45:08.186Z,17.50
2018-07-30T03:47:36.629Z,17.50
2018-07-30T03:50:06.123Z,17.50
2018-07-30T03:52:34.617Z,17.50
2018-07-30T03:55:03.250Z,17.50
2018-07-30T03:57:31.735Z,17.50
2018-07-30T04:00:00.261Z,17.40
2018-07-30T04:02:28.854Z,17.50
2018-07-30T04:04:57.340Z,17.50
2018-07-30T04:07:25.823Z,17.40
2018-07-30T04:09:54.314Z,17.50
2018-07-30T04:12:22.831Z,17.50
2018-07-30T04:14:51.328Z,17.50
2018-07-30T04:17:19.883Z,17.60
2018-07-30T04:19:48.370Z,17.60
2018-07-30T04:22:16.946Z,17.50
2018-07-30T04:24:45.491Z,17.60
2018-07-30T04:27:14.062Z,17.60
2018-07-30T04:29:42.528Z,17.60
2018-07-30T04:32:11.016Z,17.60
2018-07-30T04:34:39.473Z,17.60
2018-07-30T04:37:08.045Z,17.60
2018-07-30T04:39:36.526Z,17.60
2018-07-30T04:42:05.026Z,17.70
2018-07-30T04:44:33.551Z,17.70
2018-07-30T04:47:02.060Z,17.80
2018-07-30T04:49:30.528Z,17.80
2018-07-30T04:51:59.090Z,18.00
2018-07-30T04:54:27.542Z,18.00
2018-07-30T04:56:56.053Z,17.90
2018-07-30T04:59:24.734Z,17.90
2018-07-30T05:01:53.375Z,18.00
2018-07-30T05:04:21.912Z,18.10
2018-07-30T05:06:50.414Z,18.10
2018-07-30T05:09:18.844Z,18.30
2018-07-30T05:11:47.467Z,18.40
2018-07-30T05:14:16.106Z,18.50
2018-07-30T05:16:44.584Z,18.50
2018-07-30T05:19:13.171Z,18.70
2018-07-30T05:21:41.600Z,18.80
2018-07-30T05:24:10.059Z,18.90
2018-07-30T05:26:38.551Z,19.00
2018-07-30T05:29:07.033Z,19.00
2018-07-30T05:31:35.562Z,19.00
2018-07-30T05:34:04.056Z,19.00
2018-07-30T05:36:32.559Z,19.00
2018-07-30T05:41:29.232Z,19.20
2018-07-30T05:43:57.766Z,19.40
2018-07-30T05:46:26.250Z,19.40
2018-07-30T05:48:54.739Z,19.50
2018-07-30T05:51:23.231Z,19.60
2018-07-30T05:53:51.740Z,19.70
2018-07-30T05:56:20.254Z,19.80
2018-07-30T05:58:48.746Z,19.90
2018-07-30T06:01:17.255Z,20.00
2018-07-30T06:03:45.731Z,20.20
2018-07-30T06:06:14.388Z,20.30
2018-07-30T06:08:42.861Z,20.50
2018-07-30T06:11:11.337Z,20.70
2018-07-30T06:13:39.824Z,20.90
2018-07-30T06:16:08.312Z,21.10
2018-07-30T06:18:36.823Z,21.20
2018-07-30T06:21:05.345Z,21.40
2018-07-30T06:23:33.959Z,21.50
2018-07-30T06:26:02.445Z,21.90
2018-07-30T06:28:30.919Z,22.60
2018-07-30T06:30:59.407Z,23.40
2018-07-30T06:33:27.899Z,23.90
2018-07-30T06:35:56.399Z,23.90
2018-07-30T06:38:24.906Z,24.00
2018-07-30T06:40:53.369Z,23.90
2018-07-30T06:43:21.814Z,24.00
2018-07-30T06:45:50.321Z,24.00
2018-07-30T06:48:18.808Z,24.00
2018-07-30T06:50:47.321Z,24.40
2018-07-30T06:53:15.901Z,25.50
2018-07-30T06:55:44.445Z,26.40
2018-07-30T06:58:12.900Z,27.40
2018-07-30T07:03:09.649Z,28.60
2018-07-30T07:05:38.125Z,29.50
2018-07-30T07:08:06.634Z,29.90
2018-07-30T07:10:35.096Z,30.30
2018-07-30T07:13:03.594Z,30.40
2018-07-30T07:15:32.132Z,31.10
2018-07-30T07:18:00.643Z,31.30
2018-07-30T07:20:29.141Z,32.00
2018-07-30T07:22:57.624Z,32.30
2018-07-30T07:25:26.099Z,32.30
2018-07-30T07:27:54.592Z,32.00
2018-07-30T07:30:23.129Z,32.10
2018-07-30T07:32:51.621Z,32.70
2018-07-30T07:35:20.210Z,33.10
2018-07-30T07:37:48.742Z,32.90
2018-07-30T07:40:17.308Z,34.00
2018-07-30T07:42:45.802Z,34.50
2018-07-30T07:45:14.311Z,34.90
2018-07-30T07:47:42.832Z,34.70
2018-07-30T07:50:11.380Z,34.60
2018-07-30T07:52:39.963Z,34.40
2018-07-30T07:55:08.471Z,34.90
2018-07-30T07:57:36.952Z,34.50
2018-07-30T08:00:07.890Z,35.60
2018-07-30T08:02:36.391Z,36.50
2018-07-30T08:05:05.965Z,36.00
2018-07-30T08:07:35.032Z,36.40
2018-07-30T08:10:03.632Z,37.00
2018-07-30T08:12:32.285Z,36.90
2018-07-30T08:15:00.731Z,36.40
2018-07-30T08:17:29.299Z,36.90
2018-07-30T08:19:57.790Z,36.90
2018-07-30T08:22:26.488Z,37.20
2018-07-30T08:24:55.050Z,37.40
2018-07-30T08:27:23.565Z,37.60
2018-07-30T08:29:52.071Z,37.20
2018-07-30T08:32:20.559Z,38.20
2018-07-30T08:34:49.080Z,38.30
2018-07-30T08:37:17.653Z,37.80
2018-07-30T08:39:46.179Z,38.00
2018-07-30T08:42:14.714Z,38.30
2018-07-30T08:44:43.250Z,38.80
2018-07-30T08:47:11.727Z,38.30
2018-07-30T08:49:40.312Z,38.70
2018-07-30T08:52:08.806Z,39.50
2018-07-30T08:54:37.337Z,39.50
2018-07-30T08:57:05.862Z,38.60
2018-07-30T08:59:34.354Z,38.50
2018-07-30T09:02:02.844Z,38.70
2018-07-30T09:06:59.493Z,38.30
2018-07-30T09:09:27.951Z,38.50
2018-07-30T09:11:56.435Z,38.70
2018-07-30T09:14:24.907Z,38.90
2018-07-30T09:16:53.365Z,40.20
2018-07-30T09:19:21.854Z,40.10
2018-07-30T09:21:50.384Z,40.30
2018-07-30T09:24:18.858Z,39.80
2018-07-30T09:26:47.355Z,41.00
2018-07-30T09:29:15.886Z,40.90
2018-07-30T09:31:44.422Z,40.50
2018-07-30T09:34:12.910Z,40.10
2018-07-30T09:36:41.409Z,40.40
2018-07-30T09:39:11.125Z,40.60
2018-07-30T09:41:39.746Z,40.00
2018-07-30T09:44:08.263Z,39.80
2018-07-30T09:46:36.817Z,40.10
2018-07-30T09:49:05.424Z,40.60
2018-07-30T09:51:34.026Z,41.10
2018-07-30T09:54:02.461Z,41.00
2018-07-30T09:56:30.972Z,41.80
2018-07-30T09:58:59.508Z,41.30
2018-07-30T10:01:28.493Z,42.80
2018-07-30T10:03:57.757Z,43.20
2018-07-30T10:08:54.838Z,39.40
2018-07-30T10:11:23.393Z,36.60
2018-07-30T10:13:52.303Z,36.00
2018-07-30T10:16:20.800Z,37.80
2018-07-30T10:18:49.288Z,39.90
2018-07-30T10:21:17.934Z,40.00
2018-07-30T10:23:46.494Z,40.30
2018-07-30T10:26:14.909Z,40.80
2018-07-30T10:28:43.420Z,40.20
2018-07-30T10:31:11.893Z,41.20
2018-07-30T10:33:40.445Z,42.10
2018-07-30T10:36:08.931Z,43.10
2018-07-30T10:38:37.428Z,43.10
2018-07-30T10:41:05.943Z,42.10
2018-07-30T10:43:34.545Z,42.50
2018-07-30T10:46:03.043Z,43.10
2018-07-30T10:48:31.600Z,40.90
2018-07-30T10:51:00.058Z,39.20
2018-07-30T10:53:28.624Z,37.80
2018-07-30T10:55:57.137Z,35.90
2018-07-30T10:58:25.657Z,35.20
2018-07-30T11:00:54.265Z,34.70
2018-07-30T11:03:23.380Z,34.20
2018-07-30T11:05:51.935Z,33.80
2018-07-30T11:08:20.434Z,33.50
2018-07-30T11:10:49.003Z,33.30
2018-07-30T11:13:17.474Z,34.20
2018-07-30T11:15:46.020Z,35.10
2018-07-30T11:18:14.528Z,35.80
2018-07-30T11:20:43.019Z,36.00
2018-07-30T11:23:11.482Z,36.50
2018-07-30T11:25:40.000Z,36.30
2018-07-30T11:28:08.623Z,36.30
2018-07-30T11:30:37.054Z,36.50
2018-07-30T11:33:06.030Z,35.90
2018-07-30T11:35:34.889Z,36.50
2018-07-30T11:38:03.477Z,36.40
2018-07-30T11:40:32.031Z,36.20
2018-07-30T11:43:00.670Z,36.30
2018-07-30T11:45:29.196Z,36.50
2018-07-30T11:47:57.759Z,36.20
2018-07-30T11:50:26.298Z,36.00
2018-07-30T11:52:54.814Z,35.80
2018-07-30T11:55:23.295Z,36.00
2018-07-30T11:57:51.906Z,36.10
2018-07-30T12:00:20.650Z,36.10
2018-07-30T12:02:49.268Z,35.90
2018-07-30T12:05:17.715Z,35.90
2018-07-30T12:07:46.245Z,35.30
2018-07-30T12:10:14.769Z,35.30
2018-07-30T12:12:43.426Z,34.90
2018-07-30T12:15:12.024Z,34.30
2018-07-30T12:17:40.584Z,33.80
2018-07-30T12:20:09.201Z,32.80
2018-07-30T12:22:37.739Z,32.10
2018-07-30T12:25:06.517Z,31.40
2018-07-30T12:27:35.032Z,31.50
2018-07-30T12:30:03.903Z,31.90
2018-07-30T12:32:32.692Z,32.00
2018-07-30T12:35:01.294Z,32.50
2018-07-30T12:37:29.865Z,32.30
2018-07-30T12:39:58.373Z,32.40
2018-07-30T12:42:27.452Z,32.60
2018-07-30T12:44:56.001Z,32.70
2018-07-30T12:47:24.565Z,32.60
2018-07-30T12:49:53.166Z,32.90
2018-07-30T12:52:21.675Z,33.10
2018-07-30T12:54:50.511Z,33.30
2018-07-30T12:57:19.037Z,33.30
2018-07-30T12:59:47.582Z,33.00
2018-07-30T13:02:16.284Z,32.90
2018-07-30T13:04:51.228Z,32.70
2018-07-30T13:09:47.840Z,33.30
2018-07-30T13:12:16.314Z,33.70
2018-07-30T13:14:44.798Z,33.50
2018-07-30T13:17:13.287Z,33.40
2018-07-30T13:19:41.783Z,33.20
2018-07-30T13:22:10.305Z,33.60
2018-07-30T13:24:38.958Z,33.90
2018-07-30T13:27:07.461Z,34.10
2018-07-30T13:29:35.939Z,34.30
2018-07-30T13:32:04.580Z,34.40
2018-07-30T13:34:33.039Z,34.80
2018-07-30T13:37:01.545Z,34.80
2018-07-30T13:39:30.024Z,34.90
2018-07-30T13:41:58.653Z,34.60
2018-07-30T13:44:27.208Z,34.60
2018-07-30T13:46:55.696Z,34.80
2018-07-30T13:49:24.220Z,34.70
2018-07-30T13:51:52.737Z,34.30
2018-07-30T13:54:21.402Z,33.90
2018-07-30T13:56:49.825Z,33.80
2018-07-30T13:59:18.321Z,33.70
2018-07-30T14:01:46.902Z,34.00
2018-07-30T14:04:15.381Z,33.90
2018-07-30T14:06:44.100Z,33.70
2018-07-30T14:09:12.917Z,34.10
2018-07-30T14:11:41.486Z,34.10
2018-07-30T14:14:10.770Z,34.40
2018-07-30T14:16:40.175Z,34.10
2018-07-30T14:19:08.772Z,34.10
2018-07-30T14:21:37.284Z,34.30
2018-07-30T14:24:06.167Z,34.60
2018-07-30T14:26:34.773Z,34.30
2018-07-30T14:29:03.369Z,33.90
2018-07-30T14:31:31.914Z,33.50
2018-07-30T14:34:00.542Z,33.30
2018-07-30T14:36:29.046Z,32.80
2018-07-30T14:38:57.542Z,33.10
2018-07-30T14:41:26.138Z,33.60
2018-07-30T14:43:54.657Z,33.90
2018-07-30T14:46:23.207Z,33.90
2018-07-30T14:48:52.186Z,33.90
2018-07-30T14:51:20.778Z,34.10
2018-07-30T14:53:49.302Z,33.90
2018-07-30T14:56:17.819Z,33.80
2018-07-30T14:58:46.347Z,33.90
2018-07-30T15:01:14.904Z,34.00
2018-07-30T15:03:43.455Z,34.10
2018-07-30T15:06:12.008Z,34.10
2018-07-30T15:08:40.728Z,34.00
2018-07-30T15:11:09.269Z,33.90
2018-07-30T15:13:37.848Z,33.60
2018-07-30T15:16:06.397Z,33.40
2018-07-30T15:18:35.073Z,33.30
2018-07-30T15:21:03.616Z,33.10
2018-07-30T15:23:32.391Z,33.20
2018-07-30T15:26:01.025Z,33.30
2018-07-30T15:28:29.599Z,33.40
2018-07-30T15:30:58.105Z,33.50
2018-07-30T15:33:26.590Z,33.60
2018-07-30T15:35:55.100Z,33.50
2018-07-30T15:38:23.626Z,33.40
2018-07-30T15:40:52.138Z,33.40
2018-07-30T15:43:20.640Z,33.40
2018-07-30T15:45:49.160Z,33.40
2018-07-30T15:48:17.685Z,33.50
2018-07-30T15:50:46.189Z,33.60
2018-07-30T15:55:42.951Z,33.80
2018-07-30T15:58:11.436Z,33.70
2018-07-30T16:00:40.015Z,33.50
2018-07-30T16:03:08.560Z,33.20
2018-07-30T16:05:37.102Z,32.80
2018-07-30T16:08:05.637Z,32.70
2018-07-30T16:10:34.141Z,32.60
2018-07-30T16:13:02.729Z,32.60
2018-07-30T16:15:31.398Z,32.60
2018-07-30T16:18:00.006Z,32.60
2018-07-30T16:20:28.728Z,32.50
2018-07-30T16:22:57.306Z,32.60
2018-07-30T16:25:25.902Z,32.40
2018-07-30T16:27:54.458Z,32.30
2018-07-30T16:30:22.999Z,32.20
2018-07-30T16:32:51.533Z,32.10
2018-07-30T16:35:20.128Z,32.10
2018-07-30T16:37:48.722Z,31.90
2018-07-30T16:40:17.253Z,32.00
2018-07-30T16:42:45.829Z,32.20
2018-07-30T16:45:14.378Z,32.30
2018-07-30T16:47:42.871Z,32.30
2018-07-30T16:50:11.523Z,32.00
2018-07-30T16:52:40.112Z,32.00
2018-07-30T16:57:43.071Z,32.10
2018-07-30T17:00:12.546Z,31.90
2018-07-30T17:02:41.254Z,31.70
2018-07-30T17:05:10.323Z,31.70
2018-07-30T17:07:39.252Z,31.60
2018-07-30T17:10:07.863Z,31.60
2018-07-30T17:12:36.345Z,31.60
2018-07-30T17:15:05.088Z,31.70
2018-07-30T17:17:33.627Z,31.50
2018-07-30T17:20:02.206Z,31.40
2018-07-30T17:22:30.884Z,31.40
2018-07-30T17:24:59.340Z,31.40
2018-07-30T17:27:27.938Z,31.30
2018-07-30T17:29:56.577Z,31.20
2018-07-30T17:32:25.371Z,31.00
2018-07-30T17:34:53.998Z,30.90
2018-07-30T17:37:22.845Z,31.00
2018-07-30T17:39:51.560Z,30.90
2018-07-30T17:42:20.062Z,30.90
2018-07-30T17:44:49.012Z,30.80
2018-07-30T17:47:17.908Z,30.80
2018-07-30T17:49:46.902Z,30.80
2018-07-30T17:52:15.499Z,30.70
2018-07-30T17:54:43.998Z,30.60
2018-07-30T17:57:12.853Z,30.40
2018-07-30T17:59:41.722Z,30.30
2018-07-30T18:02:10.459Z,30.20
2018-07-30T18:04:39.202Z,30.10
2018-07-30T18:07:08.003Z,30.00
2018-07-30T18:09:36.620Z,29.90
2018-07-30T18:12:05.366Z,29.80
2018-07-30T18:14:33.994Z,29.70
2018-07-30T18:17:02.662Z,29.50
2018-07-30T18:19:31.414Z,29.40
2018-07-30T18:22:00.061Z,29.30
2018-07-30T18:24:28.820Z,29.20
2018-07-30T18:26:57.785Z,29.00
2018-07-30T18:29:26.677Z,28.90
2018-07-30T18:31:55.150Z,28.90
2018-07-30T18:34:23.723Z,28.80
2018-07-30T18:36:52.422Z,28.70
2018-07-30T18:39:21.091Z,28.60
2018-07-30T18:41:49.662Z,28.50
2018-07-30T18:44:18.182Z,28.50
2018-07-30T18:46:46.845Z,28.40
2018-07-30T18:49:15.859Z,28.30
2018-07-30T18:51:44.426Z,28.20
2018-07-30T18:54:12.923Z,28.20
2018-07-30T18:56:41.429Z,28.10
2018-07-30T18:59:10.205Z,27.90
2018-07-30T19:01:38.696Z,27.80
2018-07-30T19:04:07.341Z,27.70
2018-07-30T19:06:35.923Z,27.60
2018-07-30T19:09:06.311Z,27.60
2018-07-30T19:11:34.982Z,27.50
2018-07-30T19:14:03.858Z,27.40
2018-07-30T19:16:32.410Z,27.30
2018-07-30T19:19:01.112Z,27.20
2018-07-30T19:21:29.964Z,27.10
2018-07-30T19:23:58.487Z,27.00
2018-07-30T19:26:27.289Z,26.90
2018-07-30T19:28:55.886Z,26.80
2018-07-30T19:31:25.132Z,26.70
2018-07-30T19:33:53.756Z,26.60
2018-07-30T19:36:23.112Z,26.50
2018-07-30T19:38:52.671Z,26.50
2018-07-30T19:41:21.939Z,26.40
2018-07-30T19:43:51.020Z,26.30
2018-07-30T19:46:19.842Z,26.20
2018-07-30T19:48:48.386Z,26.20
2018-07-30T19:51:16.895Z,26.20
2018-07-30T19:53:45.764Z,26.20
2018-07-30T19:56:14.759Z,26.10
2018-07-30T19:58:43.804Z,26.10
2018-07-30T20:01:12.863Z,26.00
2018-07-30T20:03:41.819Z,25.90
2018-07-30T20:06:10.713Z,25.90
2018-07-30T20:08:39.610Z,25.80
2018-07-30T20:11:09.212Z,25.70
2018-07-30T20:13:38.066Z,25.60
2018-07-30T20:16:08.221Z,25.50
2018-07-30T20:18:36.920Z,25.40
2018-07-30T20:21:05.788Z,25.30
2018-07-30T20:23:34.333Z,25.20
2018-07-30T20:26:02.864Z,25.10
2018-07-30T20:28:31.447Z,25.00
2018-07-30T20:31:00.214Z,24.90
2018-07-30T20:33:28.740Z,24.90
2018-07-30T20:35:57.273Z,24.80
2018-07-30T20:38:25.963Z,24.70
2018-07-30T20:40:54.507Z,24.70
2018-07-30T20:43:23.011Z,24.60
2018-07-30T20:45:51.623Z,24.50
2018-07-30T20:48:20.252Z,24.50
2018-07-30T20:50:49.117Z,24.50
2018-07-30T20:53:17.645Z,24.40
2018-07-30T20:55:46.132Z,24.40
2018-07-30T20:58:14.753Z,24.30
2018-07-30T21:00:43.349Z,24.30
2018-07-30T21:03:11.940Z,24.30
2018-07-30T21:05:42.297Z,24.20
2018-07-30T21:08:12.319Z,24.20
2018-07-30T21:10:41.138Z,24.10
2018-07-30T21:13:09.674Z,24.00
2018-07-30T21:15:38.169Z,23.90
2018-07-30T21:18:06.685Z,23.90
2018-07-30T21:20:35.194Z,23.80
2018-07-30T21:23:03.759Z,23.70
2018-07-30T21:25:32.285Z,23.60
2018-07-30T21:28:00.875Z,23.60
2018-07-30T21:30:29.412Z,23.60
2018-07-30T21:32:57.994Z,23.50
2018-07-30T21:35:26.537Z,23.50
2018-07-30T21:37:55.067Z,23.40
2018-07-30T21:40:23.607Z,23.40
2018-07-30T21:42:52.159Z,23.30
2018-07-30T21:45:20.723Z,23.20
2018-07-30T21:47:49.443Z,23.20
2018-07-30T21:50:17.990Z,23.20
2018-07-30T21:52:46.486Z,23.20
2018-07-30T21:55:15.018Z,23.10
2018-07-30T21:57:43.564Z,23.00
2018-07-30T22:00:17.098Z,22.90
2018-07-30T22:02:45.655Z,22.90
2018-07-30T22:05:15.964Z,22.90
2018-07-30T22:07:45.269Z,22.90
2018-07-30T22:10:13.938Z,22.80
2018-07-30T22:12:42.835Z,22.70
2018-07-30T22:15:11.458Z,22.70
2018-07-30T22:17:40.066Z,22.70
2018-07-30T22:20:08.634Z,22.60
2018-07-30T22:22:37.957Z,22.50
2018-07-30T22:25:06.870Z,22.50
2018-07-30T22:27:35.468Z,22.50
2018-07-30T22:30:05.347Z,22.40
2018-07-30T22:32:33.807Z,22.30
2018-07-30T22:35:02.343Z,22.30
2018-07-30T22:37:30.931Z,22.20
2018-07-30T22:39:59.419Z,22.20
2018-07-30T22:42:27.881Z,22.10
2018-07-30T22:44:56.667Z,22.10
2018-07-30T22:47:25.127Z,22.10
2018-07-30T22:49:53.628Z,22.10
2018-07-30T22:52:22.102Z,22.00
2018-07-30T22:54:50.752Z,22.00
2018-07-30T22:57:19.226Z,21.90
2018-07-30T22:59:47.685Z,21.90
2018-07-30T23:02:16.150Z,21.80
2018-07-30T23:04:44.770Z,21.80
2018-07-30T23:07:13.397Z,21.80
2018-07-30T23:09:41.894Z,21.70
2018-07-30T23:12:10.338Z,21.70
2018-07-30T23:14:38.842Z,21.60
2018-07-30T23:17:08.051Z,21.50
2018-07-30T23:19:36.511Z,21.50
2018-07-30T23:22:05.011Z,21.50
2018-07-30T23:24:33.484Z,21.50
2018-07-30T23:27:01.975Z,21.50
2018-07-30T23:29:30.438Z,21.40
2018-07-30T23:31:58.963Z,21.30
2018-07-30T23:34:27.405Z,21.30
2018-07-30T23:36:55.926Z,21.30
2018-07-30T23:39:24.451Z,21.30
2018-07-30T23:41:52.974Z,21.30
2018-07-30T23:44:21.419Z,21.20
2018-07-30T23:46:49.990Z,21.10
2018-07-30T23:49:18.498Z,21.10
2018-07-30T23:51:46.983Z,21.00
2018-07-30T23:54:15.517Z,21.00
2018-07-30T23:56:43.974Z,21.00
2018-07-30T23:59:12.531Z,21.00
